sensor_id;sensor_type;location;lat;lon;timestamp;pressure;altitude;pressure_sealevel;temperature
15935;BMP180;8066;48.776;11.384;2022-08-01T00:02:20;97403.00;;;30.40
15935;BMP180;8066;48.776;11.384;2022-08-01T00:04:47;97399.00;;;30.40
15935;BMP180;8066;48.776;11.384;2022-08-01T00:07:13;97408.00;;;30.30
15935;BMP180;8066;48.776;11.384;2022-08-01T00:09:40;97403.00;;;30.30
15935;BMP180;8066;48.776;11.384;2022-08-01T00:12:08;97406.00;;;30.30
15935;BMP180;8066;48.776;11.384;2022-08-01T00:14:35;97407.00;;;30.20
15935;BMP180;8066;48.776;11.384;2022-08-01T00:17:02;97395.00;;;30.20
15935;BMP180;8066;48.776;11.384;2022-08-01T00:19:31;97416.00;;;30.20
15935;BMP180;8066;48.776;11.384;2022-08-01T00:21:57;97407.00;;;30.10
15935;BMP180;8066;48.776;11.384;2022-08-01T00:24:24;97413.00;;;30.10
15935;BMP180;8066;48.776;11.384;2022-08-01T00:26:51;97403.00;;;30.10
15935;BMP180;8066;48.776;11.384;2022-08-01T00:29:18;97409.00;;;30.00
15935;BMP180;8066;48.776;11.384;2022-08-01T00:31:45;97399.00;;;30.00
15935;BMP180;8066;48.776;11.384;2022-08-01T00:34:12;97398.00;;;30.00
15935;BMP180;8066;48.776;11.384;2022-08-01T00:36:40;97399.00;;;30.00
15935;BMP180;8066;48.776;11.384;2022-08-01T00:39:07;97401.00;;;29.90
15935;BMP180;8066;48.776;11.384;2022-08-01T00:41:34;97392.00;;;29.90
15935;BMP180;8066;48.776;11.384;2022-08-01T00:44:04;97398.00;;;29.90
15935;BMP180;8066;48.776;11.384;2022-08-01T00:46:31;97401.00;;;29.90
15935;BMP180;8066;48.776;11.384;2022-08-01T00:49:01;97397.00;;;29.80
15935;BMP180;8066;48.776;11.384;2022-08-01T00:51:28;97401.00;;;29.80
15935;BMP180;8066;48.776;11.384;2022-08-01T00:53:57;97393.00;;;29.80
15935;BMP180;8066;48.776;11.384;2022-08-01T00:56:26;97390.00;;;29.70
15935;BMP180;8066;48.776;11.384;2022-08-01T00:58:55;97396.00;;;29.70
15935;BMP180;8066;48.776;11.384;2022-08-01T01:01:22;97390.00;;;29.70
15935;BMP180;8066;48.776;11.384;2022-08-01T01:03:50;97391.00;;;29.60
15935;BMP180;8066;48.776;11.384;2022-08-01T01:06:38;97405.00;;;29.60
15935;BMP180;8066;48.776;11.384;2022-08-01T01:09:24;97407.00;;;29.60
15935;BMP180;8066;48.776;11.384;2022-08-01T01:12:10;97404.00;;;29.50
15935;BMP180;8066;48.776;11.384;2022-08-01T01:14:47;97404.00;;;29.50
15935;BMP180;8066;48.776;11.384;2022-08-01T01:17:23;97400.00;;;29.50
15935;BMP180;8066;48.776;11.384;2022-08-01T01:19:55;97408.00;;;29.50
15935;BMP180;8066;48.776;11.384;2022-08-01T01:22:37;97414.00;;;29.40
15935;BMP180;8066;48.776;11.384;2022-08-01T01:25:26;97408.00;;;29.40
15935;BMP180;8066;48.776;11.384;2022-08-01T01:28:10;97408.00;;;29.40
15935;BMP180;8066;48.776;11.384;2022-08-01T01:30:43;97415.00;;;29.40
15935;BMP180;8066;48.776;11.384;2022-08-01T01:33:13;97417.00;;;29.40
15935;BMP180;8066;48.776;11.384;2022-08-01T01:35:46;97408.00;;;29.30
15935;BMP180;8066;48.776;11.384;2022-08-01T01:38:18;97414.00;;;29.30
15935;BMP180;8066;48.776;11.384;2022-08-01T01:40:48;97416.00;;;29.30
15935;BMP180;8066;48.776;11.384;2022-08-01T01:43:17;97415.00;;;29.30
15935;BMP180;8066;48.776;11.384;2022-08-01T01:45:48;97425.00;;;29.30
15935;BMP180;8066;48.776;11.384;2022-08-01T01:48:18;97418.00;;;29.20
15935;BMP180;8066;48.776;11.384;2022-08-01T01:50:47;97417.00;;;29.20
15935;BMP180;8066;48.776;11.384;2022-08-01T01:53:19;97421.00;;;29.20
15935;BMP180;8066;48.776;11.384;2022-08-01T01:55:50;97424.00;;;29.10
15935;BMP180;8066;48.776;11.384;2022-08-01T01:58:20;97413.00;;;29.10
15935;BMP180;8066;48.776;11.384;2022-08-01T02:00:52;97416.00;;;29.10
15935;BMP180;8066;48.776;11.384;2022-08-01T02:03:22;97408.00;;;29.00
15935;BMP180;8066;48.776;11.384;2022-08-01T02:05:51;97414.00;;;29.00
15935;BMP180;8066;48.776;11.384;2022-08-01T02:08:21;97423.00;;;29.00
15935;BMP180;8066;48.776;11.384;2022-08-01T02:10:52;97421.00;;;29.00
15935;BMP180;8066;48.776;11.384;2022-08-01T02:13:38;97413.00;;;28.90
15935;BMP180;8066;48.776;11.384;2022-08-01T02:16:08;97418.00;;;28.90
15935;BMP180;8066;48.776;11.384;2022-08-01T02:18:36;97422.00;;;28.90
15935;BMP180;8066;48.776;11.384;2022-08-01T02:21:09;97423.00;;;28.90
15935;BMP180;8066;48.776;11.384;2022-08-01T02:23:40;97425.00;;;28.90
15935;BMP180;8066;48.776;11.384;2022-08-01T02:26:13;97423.00;;;28.80
15935;BMP180;8066;48.776;11.384;2022-08-01T02:28:47;97434.00;;;28.80
15935;BMP180;8066;48.776;11.384;2022-08-01T02:31:21;97420.00;;;28.80
15935;BMP180;8066;48.776;11.384;2022-08-01T02:33:57;97422.00;;;28.70
15935;BMP180;8066;48.776;11.384;2022-08-01T02:36:27;97434.00;;;28.70
15935;BMP180;8066;48.776;11.384;2022-08-01T02:38:56;97430.00;;;28.70
15935;BMP180;8066;48.776;11.384;2022-08-01T02:41:26;97434.00;;;28.70
15935;BMP180;8066;48.776;11.384;2022-08-01T02:43:59;97439.00;;;28.60
15935;BMP180;8066;48.776;11.384;2022-08-01T02:46:35;97427.00;;;28.60
15935;BMP180;8066;48.776;11.384;2022-08-01T02:49:06;97420.00;;;28.60
15935;BMP180;8066;48.776;11.384;2022-08-01T02:51:35;97427.00;;;28.60
15935;BMP180;8066;48.776;11.384;2022-08-01T02:54:06;97429.00;;;28.60
15935;BMP180;8066;48.776;11.384;2022-08-01T02:56:35;97438.00;;;28.60
15935;BMP180;8066;48.776;11.384;2022-08-01T02:59:07;97432.00;;;28.60
15935;BMP180;8066;48.776;11.384;2022-08-01T03:01:39;97439.00;;;28.60
15935;BMP180;8066;48.776;11.384;2022-08-01T03:04:07;97436.00;;;28.60
15935;BMP180;8066;48.776;11.384;2022-08-01T03:06:36;97436.00;;;28.60
15935;BMP180;8066;48.776;11.384;2022-08-01T03:09:06;97443.00;;;28.50
15935;BMP180;8066;48.776;11.384;2022-08-01T03:11:37;97444.00;;;28.50
15935;BMP180;8066;48.776;11.384;2022-08-01T03:14:08;97439.00;;;28.50
15935;BMP180;8066;48.776;11.384;2022-08-01T03:16:41;97446.00;;;28.50
15935;BMP180;8066;48.776;11.384;2022-08-01T03:19:11;97436.00;;;28.50
15935;BMP180;8066;48.776;11.384;2022-08-01T03:21:40;97434.00;;;28.50
15935;BMP180;8066;48.776;11.384;2022-08-01T03:24:09;97435.00;;;28.50
15935;BMP180;8066;48.776;11.384;2022-08-01T03:26:38;97444.00;;;28.50
15935;BMP180;8066;48.776;11.384;2022-08-01T03:29:09;97439.00;;;28.40
15935;BMP180;8066;48.776;11.384;2022-08-01T03:31:40;97455.00;;;28.40
15935;BMP180;8066;48.776;11.384;2022-08-01T03:34:11;97459.00;;;28.40
15935;BMP180;8066;48.776;11.384;2022-08-01T03:36:47;97453.00;;;28.40
15935;BMP180;8066;48.776;11.384;2022-08-01T03:39:17;97446.00;;;28.40
15935;BMP180;8066;48.776;11.384;2022-08-01T03:42:01;97458.00;;;28.40
15935;BMP180;8066;48.776;11.384;2022-08-01T03:44:33;97460.00;;;28.30
15935;BMP180;8066;48.776;11.384;2022-08-01T03:47:08;97463.00;;;28.30
15935;BMP180;8066;48.776;11.384;2022-08-01T03:49:40;97459.00;;;28.30
15935;BMP180;8066;48.776;11.384;2022-08-01T03:52:09;97465.00;;;28.30
15935;BMP180;8066;48.776;11.384;2022-08-01T03:54:40;97461.00;;;28.30
15935;BMP180;8066;48.776;11.384;2022-08-01T03:57:09;97463.00;;;28.30
15935;BMP180;8066;48.776;11.384;2022-08-01T03:59:37;97471.00;;;28.30
15935;BMP180;8066;48.776;11.384;2022-08-01T04:02:06;97465.00;;;28.30
15935;BMP180;8066;48.776;11.384;2022-08-01T04:04:34;97466.00;;;28.30
15935;BMP180;8066;48.776;11.384;2022-08-01T04:07:01;97468.00;;;28.30
15935;BMP180;8066;48.776;11.384;2022-08-01T04:09:32;97466.00;;;28.30
15935;BMP180;8066;48.776;11.384;2022-08-01T04:11:59;97468.00;;;28.30
15935;BMP180;8066;48.776;11.384;2022-08-01T04:14:26;97468.00;;;28.20
15935;BMP180;8066;48.776;11.384;2022-08-01T04:16:53;97475.00;;;28.30
15935;BMP180;8066;48.776;11.384;2022-08-01T04:19:22;97470.00;;;28.20
15935;BMP180;8066;48.776;11.384;2022-08-01T04:21:49;97475.00;;;28.20
15935;BMP180;8066;48.776;11.384;2022-08-01T04:24:18;97475.00;;;28.20
15935;BMP180;8066;48.776;11.384;2022-08-01T04:26:48;97482.00;;;28.20
15935;BMP180;8066;48.776;11.384;2022-08-01T04:29:19;97476.00;;;28.30
15935;BMP180;8066;48.776;11.384;2022-08-01T04:31:49;97483.00;;;28.20
15935;BMP180;8066;48.776;11.384;2022-08-01T04:34:22;97490.00;;;28.30
15935;BMP180;8066;48.776;11.384;2022-08-01T04:36:52;97496.00;;;28.30
15935;BMP180;8066;48.776;11.384;2022-08-01T04:39:23;97490.00;;;28.30
15935;BMP180;8066;48.776;11.384;2022-08-01T04:41:55;97486.00;;;28.30
15935;BMP180;8066;48.776;11.384;2022-08-01T04:44:23;97501.00;;;28.30
15935;BMP180;8066;48.776;11.384;2022-08-01T04:46:51;97499.00;;;28.30
15935;BMP180;8066;48.776;11.384;2022-08-01T04:49:22;97514.00;;;28.40
15935;BMP180;8066;48.776;11.384;2022-08-01T04:51:51;97504.00;;;28.40
15935;BMP180;8066;48.776;11.384;2022-08-01T04:54:23;97512.00;;;28.40
15935;BMP180;8066;48.776;11.384;2022-08-01T04:56:50;97505.00;;;28.50
15935;BMP180;8066;48.776;11.384;2022-08-01T04:59:19;97499.00;;;28.50
15935;BMP180;8066;48.776;11.384;2022-08-01T05:02:03;97515.00;;;28.60
15935;BMP180;8066;48.776;11.384;2022-08-01T05:04:32;97522.00;;;28.70
15935;BMP180;8066;48.776;11.384;2022-08-01T05:06:59;97531.00;;;28.90
15935;BMP180;8066;48.776;11.384;2022-08-01T05:09:26;97531.00;;;29.00
15935;BMP180;8066;48.776;11.384;2022-08-01T05:11:53;97532.00;;;29.10
15935;BMP180;8066;48.776;11.384;2022-08-01T05:14:20;97522.00;;;29.30
15935;BMP180;8066;48.776;11.384;2022-08-01T05:16:47;97530.00;;;29.40
15935;BMP180;8066;48.776;11.384;2022-08-01T05:19:14;97530.00;;;29.60
15935;BMP180;8066;48.776;11.384;2022-08-01T05:21:42;97537.00;;;29.80
15935;BMP180;8066;48.776;11.384;2022-08-01T05:24:10;97533.00;;;29.90
15935;BMP180;8066;48.776;11.384;2022-08-01T05:26:38;97534.00;;;30.10
15935;BMP180;8066;48.776;11.384;2022-08-01T05:29:05;97529.00;;;30.30
15935;BMP180;8066;48.776;11.384;2022-08-01T05:31:33;97530.00;;;30.40
15935;BMP180;8066;48.776;11.384;2022-08-01T05:34:00;97531.00;;;30.50
15935;BMP180;8066;48.776;11.384;2022-08-01T05:36:27;97534.00;;;30.70
15935;BMP180;8066;48.776;11.384;2022-08-01T05:38:55;97535.00;;;30.80
15935;BMP180;8066;48.776;11.384;2022-08-01T05:41:22;97538.00;;;30.80
15935;BMP180;8066;48.776;11.384;2022-08-01T05:43:49;97534.00;;;30.90
15935;BMP180;8066;48.776;11.384;2022-08-01T05:46:16;97531.00;;;30.90
15935;BMP180;8066;48.776;11.384;2022-08-01T05:48:43;97537.00;;;31.00
15935;BMP180;8066;48.776;11.384;2022-08-01T05:51:10;97534.00;;;31.00
15935;BMP180;8066;48.776;11.384;2022-08-01T05:53:37;97524.00;;;30.90
15935;BMP180;8066;48.776;11.384;2022-08-01T05:56:06;97529.00;;;30.90
15935;BMP180;8066;48.776;11.384;2022-08-01T05:58:32;97531.00;;;30.90
15935;BMP180;8066;48.776;11.384;2022-08-01T06:00:59;97527.00;;;30.90
15935;BMP180;8066;48.776;11.384;2022-08-01T06:03:26;97535.00;;;30.90
15935;BMP180;8066;48.776;11.384;2022-08-01T06:05:56;97545.00;;;30.90
15935;BMP180;8066;48.776;11.384;2022-08-01T06:08:23;97539.00;;;30.80
15935;BMP180;8066;48.776;11.384;2022-08-01T06:10:50;97547.00;;;30.80
15935;BMP180;8066;48.776;11.384;2022-08-01T06:13:19;97551.00;;;30.80
15935;BMP180;8066;48.776;11.384;2022-08-01T06:15:47;97560.00;;;30.90
15935;BMP180;8066;48.776;11.384;2022-08-01T06:18:14;97551.00;;;30.90
15935;BMP180;8066;48.776;11.384;2022-08-01T06:20:42;97553.00;;;30.90
15935;BMP180;8066;48.776;11.384;2022-08-01T06:23:09;97556.00;;;31.00
15935;BMP180;8066;48.776;11.384;2022-08-01T06:25:36;97557.00;;;31.10
15935;BMP180;8066;48.776;11.384;2022-08-01T06:28:03;97565.00;;;31.10
15935;BMP180;8066;48.776;11.384;2022-08-01T06:30:32;97556.00;;;31.10
15935;BMP180;8066;48.776;11.384;2022-08-01T06:32:59;97555.00;;;31.20
15935;BMP180;8066;48.776;11.384;2022-08-01T06:35:26;97563.00;;;31.20
15935;BMP180;8066;48.776;11.384;2022-08-01T06:37:55;97570.00;;;31.30
15935;BMP180;8066;48.776;11.384;2022-08-01T06:40:22;97568.00;;;31.30
15935;BMP180;8066;48.776;11.384;2022-08-01T06:42:50;97563.00;;;31.40
15935;BMP180;8066;48.776;11.384;2022-08-01T06:45:17;97568.00;;;31.40
15935;BMP180;8066;48.776;11.384;2022-08-01T06:47:45;97565.00;;;31.50
15935;BMP180;8066;48.776;11.384;2022-08-01T06:50:12;97555.00;;;31.60
15935;BMP180;8066;48.776;11.384;2022-08-01T06:52:41;97570.00;;;31.70
15935;BMP180;8066;48.776;11.384;2022-08-01T06:55:09;97572.00;;;31.80
15935;BMP180;8066;48.776;11.384;2022-08-01T06:57:36;97566.00;;;31.90
15935;BMP180;8066;48.776;11.384;2022-08-01T07:00:12;97580.00;;;32.00
15935;BMP180;8066;48.776;11.384;2022-08-01T07:02:39;97582.00;;;32.20
15935;BMP180;8066;48.776;11.384;2022-08-01T07:05:09;97580.00;;;32.30
15935;BMP180;8066;48.776;11.384;2022-08-01T07:07:36;97569.00;;;32.40
15935;BMP180;8066;48.776;11.384;2022-08-01T07:10:04;97576.00;;;32.50
15935;BMP180;8066;48.776;11.384;2022-08-01T07:12:31;97572.00;;;32.80
15935;BMP180;8066;48.776;11.384;2022-08-01T07:14:58;97571.00;;;33.10
15935;BMP180;8066;48.776;11.384;2022-08-01T07:17:25;97575.00;;;33.30
15935;BMP180;8066;48.776;11.384;2022-08-01T07:19:52;97566.00;;;33.60
15935;BMP180;8066;48.776;11.384;2022-08-01T07:22:21;97562.00;;;33.90
15935;BMP180;8066;48.776;11.384;2022-08-01T07:24:48;97571.00;;;34.30
15935;BMP180;8066;48.776;11.384;2022-08-01T07:27:15;97553.00;;;34.70
15935;BMP180;8066;48.776;11.384;2022-08-01T07:29:42;97566.00;;;35.20
15935;BMP180;8066;48.776;11.384;2022-08-01T07:32:09;97564.00;;;35.70
15935;BMP180;8066;48.776;11.384;2022-08-01T07:34:36;97558.00;;;36.30
15935;BMP180;8066;48.776;11.384;2022-08-01T07:37:03;97556.00;;;36.90
15935;BMP180;8066;48.776;11.384;2022-08-01T07:39:31;97542.00;;;37.50
15935;BMP180;8066;48.776;11.384;2022-08-01T07:41:58;97551.00;;;38.20
15935;BMP180;8066;48.776;11.384;2022-08-01T07:44:25;97549.00;;;38.80
15935;BMP180;8066;48.776;11.384;2022-08-01T07:46:52;97541.00;;;39.50
15935;BMP180;8066;48.776;11.384;2022-08-01T07:49:19;97538.00;;;40.10
15935;BMP180;8066;48.776;11.384;2022-08-01T07:51:47;97539.00;;;40.70
15935;BMP180;8066;48.776;11.384;2022-08-01T07:54:14;97539.00;;;41.20
15935;BMP180;8066;48.776;11.384;2022-08-01T07:56:45;97532.00;;;41.70
15935;BMP180;8066;48.776;11.384;2022-08-01T07:59:12;97530.00;;;42.30
15935;BMP180;8066;48.776;11.384;2022-08-01T08:01:39;97531.00;;;42.70
15935;BMP180;8066;48.776;11.384;2022-08-01T08:04:07;97530.00;;;43.20
15935;BMP180;8066;48.776;11.384;2022-08-01T08:06:33;97524.00;;;43.60
15935;BMP180;8066;48.776;11.384;2022-08-01T08:09:00;97529.00;;;44.00
15935;BMP180;8066;48.776;11.384;2022-08-01T08:11:27;97526.00;;;44.40
15935;BMP180;8066;48.776;11.384;2022-08-01T08:13:56;97526.00;;;44.80
15935;BMP180;8066;48.776;11.384;2022-08-01T08:16:23;97530.00;;;45.10
15935;BMP180;8066;48.776;11.384;2022-08-01T08:18:50;97526.00;;;45.20
15935;BMP180;8066;48.776;11.384;2022-08-01T08:21:16;97518.00;;;45.30
15935;BMP180;8066;48.776;11.384;2022-08-01T08:23:43;97528.00;;;45.60
15935;BMP180;8066;48.776;11.384;2022-08-01T08:26:28;97522.00;;;46.00
15935;BMP180;8066;48.776;11.384;2022-08-01T08:28:56;97518.00;;;46.30
15935;BMP180;8066;48.776;11.384;2022-08-01T08:31:23;97521.00;;;46.70
15935;BMP180;8066;48.776;11.384;2022-08-01T08:33:50;97524.00;;;47.00
15935;BMP180;8066;48.776;11.384;2022-08-01T08:36:17;97523.00;;;47.40
15935;BMP180;8066;48.776;11.384;2022-08-01T08:38:44;97516.00;;;47.70
15935;BMP180;8066;48.776;11.384;2022-08-01T08:41:11;97526.00;;;48.10
15935;BMP180;8066;48.776;11.384;2022-08-01T08:43:38;97522.00;;;48.40
15935;BMP180;8066;48.776;11.384;2022-08-01T08:46:08;97504.00;;;48.70
15935;BMP180;8066;48.776;11.384;2022-08-01T08:48:41;97526.00;;;49.10
15935;BMP180;8066;48.776;11.384;2022-08-01T08:51:09;97530.00;;;48.90
15935;BMP180;8066;48.776;11.384;2022-08-01T08:53:40;97528.00;;;48.30
15935;BMP180;8066;48.776;11.384;2022-08-01T08:56:13;97532.00;;;47.60
15935;BMP180;8066;48.776;11.384;2022-08-01T08:58:44;97531.00;;;47.00
15935;BMP180;8066;48.776;11.384;2022-08-01T09:01:13;97538.00;;;46.60
15935;BMP180;8066;48.776;11.384;2022-08-01T09:03:40;97531.00;;;46.20
15935;BMP180;8066;48.776;11.384;2022-08-01T09:06:07;97532.00;;;45.70
15935;BMP180;8066;48.776;11.384;2022-08-01T09:08:34;97538.00;;;45.20
15935;BMP180;8066;48.776;11.384;2022-08-01T09:11:01;97538.00;;;44.70
15935;BMP180;8066;48.776;11.384;2022-08-01T09:13:29;97547.00;;;44.20
15935;BMP180;8066;48.776;11.384;2022-08-01T09:15:56;97544.00;;;43.80
15935;BMP180;8066;48.776;11.384;2022-08-01T09:18:31;97537.00;;;43.30
15935;BMP180;8066;48.776;11.384;2022-08-01T09:21:15;97540.00;;;42.80
15935;BMP180;8066;48.776;11.384;2022-08-01T09:23:46;97549.00;;;42.40
15935;BMP180;8066;48.776;11.384;2022-08-01T09:26:15;97550.00;;;42.00
15935;BMP180;8066;48.776;11.384;2022-08-01T09:28:44;97546.00;;;41.70
15935;BMP180;8066;48.776;11.384;2022-08-01T09:31:14;97551.00;;;41.50
15935;BMP180;8066;48.776;11.384;2022-08-01T09:33:55;97549.00;;;41.20
15935;BMP180;8066;48.776;11.384;2022-08-01T09:36:25;97559.00;;;41.00
15935;BMP180;8066;48.776;11.384;2022-08-01T09:38:54;97558.00;;;40.70
15935;BMP180;8066;48.776;11.384;2022-08-01T09:41:31;97554.00;;;40.30
15935;BMP180;8066;48.776;11.384;2022-08-01T09:43:58;97558.00;;;40.20
15935;BMP180;8066;48.776;11.384;2022-08-01T09:46:26;97551.00;;;40.10
15935;BMP180;8066;48.776;11.384;2022-08-01T09:49:00;97558.00;;;40.00
15935;BMP180;8066;48.776;11.384;2022-08-01T09:51:31;97551.00;;;40.00
15935;BMP180;8066;48.776;11.384;2022-08-01T09:53:58;97562.00;;;40.00
15935;BMP180;8066;48.776;11.384;2022-08-01T09:56:26;97546.00;;;40.20
15935;BMP180;8066;48.776;11.384;2022-08-01T09:58:56;97551.00;;;40.50
15935;BMP180;8066;48.776;11.384;2022-08-01T10:01:23;97542.00;;;40.80
15935;BMP180;8066;48.776;11.384;2022-08-01T10:04:10;97544.00;;;41.20
15935;BMP180;8066;48.776;11.384;2022-08-01T10:06:38;97541.00;;;41.60
15935;BMP180;8066;48.776;11.384;2022-08-01T10:09:05;97542.00;;;41.80
15935;BMP180;8066;48.776;11.384;2022-08-01T10:11:34;97549.00;;;41.90
15935;BMP180;8066;48.776;11.384;2022-08-01T10:14:05;97546.00;;;42.00
15935;BMP180;8066;48.776;11.384;2022-08-01T10:16:34;97540.00;;;42.10
15935;BMP180;8066;48.776;11.384;2022-08-01T10:19:05;97528.00;;;42.10
15935;BMP180;8066;48.776;11.384;2022-08-01T10:21:36;97526.00;;;41.90
15935;BMP180;8066;48.776;11.384;2022-08-01T10:24:05;97527.00;;;41.80
15935;BMP180;8066;48.776;11.384;2022-08-01T10:26:35;97520.00;;;41.80
15935;BMP180;8066;48.776;11.384;2022-08-01T10:29:03;97533.00;;;41.80
15935;BMP180;8066;48.776;11.384;2022-08-01T10:31:32;97527.00;;;41.80
15935;BMP180;8066;48.776;11.384;2022-08-01T10:34:00;97530.00;;;41.90
15935;BMP180;8066;48.776;11.384;2022-08-01T10:36:28;97533.00;;;42.10
15935;BMP180;8066;48.776;11.384;2022-08-01T10:38:58;97529.00;;;42.20
15935;BMP180;8066;48.776;11.384;2022-08-01T10:41:26;97522.00;;;42.30
15935;BMP180;8066;48.776;11.384;2022-08-01T10:43:55;97514.00;;;42.40
15935;BMP180;8066;48.776;11.384;2022-08-01T10:46:22;97523.00;;;42.50
15935;BMP180;8066;48.776;11.384;2022-08-01T10:48:58;97525.00;;;42.60
15935;BMP180;8066;48.776;11.384;2022-08-01T10:51:28;97526.00;;;42.60
15935;BMP180;8066;48.776;11.384;2022-08-01T10:53:56;97516.00;;;42.60
15935;BMP180;8066;48.776;11.384;2022-08-01T10:56:39;97523.00;;;42.50
15935;BMP180;8066;48.776;11.384;2022-08-01T10:59:06;97528.00;;;42.40
15935;BMP180;8066;48.776;11.384;2022-08-01T11:01:33;97523.00;;;42.30
15935;BMP180;8066;48.776;11.384;2022-08-01T11:04:08;97518.00;;;42.10
15935;BMP180;8066;48.776;11.384;2022-08-01T11:06:51;97517.00;;;41.80
15935;BMP180;8066;48.776;11.384;2022-08-01T11:09:28;97522.00;;;41.50
15935;BMP180;8066;48.776;11.384;2022-08-01T11:12:02;97514.00;;;41.20
15935;BMP180;8066;48.776;11.384;2022-08-01T11:14:32;97513.00;;;41.00
15935;BMP180;8066;48.776;11.384;2022-08-01T11:17:32;97514.00;;;40.60
15935;BMP180;8066;48.776;11.384;2022-08-01T11:20:09;97513.00;;;40.50
15935;BMP180;8066;48.776;11.384;2022-08-01T11:23:18;97504.00;;;40.70
15935;BMP180;8066;48.776;11.384;2022-08-01T11:26:20;97496.00;;;40.90
15935;BMP180;8066;48.776;11.384;2022-08-01T11:29:17;97485.00;;;41.20
15935;BMP180;8066;48.776;11.384;2022-08-01T11:31:44;97497.00;;;41.30
15935;BMP180;8066;48.776;11.384;2022-08-01T11:34:11;97501.00;;;41.30
15935;BMP180;8066;48.776;11.384;2022-08-01T11:36:38;97495.00;;;41.20
15935;BMP180;8066;48.776;11.384;2022-08-01T11:39:14;97505.00;;;41.00
15935;BMP180;8066;48.776;11.384;2022-08-01T11:41:46;97502.00;;;40.90
15935;BMP180;8066;48.776;11.384;2022-08-01T11:44:20;97495.00;;;40.80
15935;BMP180;8066;48.776;11.384;2022-08-01T11:47:00;97509.00;;;40.70
15935;BMP180;8066;48.776;11.384;2022-08-01T11:49:49;97511.00;;;40.50
15935;BMP180;8066;48.776;11.384;2022-08-01T11:52:26;97500.00;;;40.40
15935;BMP180;8066;48.776;11.384;2022-08-01T11:54:56;97503.00;;;40.30
15935;BMP180;8066;48.776;11.384;2022-08-01T11:57:28;97503.00;;;40.30
15935;BMP180;8066;48.776;11.384;2022-08-01T11:59:58;97503.00;;;40.30
15935;BMP180;8066;48.776;11.384;2022-08-01T12:02:27;97490.00;;;40.50
15935;BMP180;8066;48.776;11.384;2022-08-01T12:04:57;97492.00;;;40.80
15935;BMP180;8066;48.776;11.384;2022-08-01T12:07:27;97502.00;;;41.00
15935;BMP180;8066;48.776;11.384;2022-08-01T12:10:01;97487.00;;;41.20
15935;BMP180;8066;48.776;11.384;2022-08-01T12:12:32;97499.00;;;41.50
15935;BMP180;8066;48.776;11.384;2022-08-01T12:15:02;97484.00;;;41.70
15935;BMP180;8066;48.776;11.384;2022-08-01T12:17:33;97488.00;;;41.70
15935;BMP180;8066;48.776;11.384;2022-08-01T12:20:01;97469.00;;;42.00
15935;BMP180;8066;48.776;11.384;2022-08-01T12:22:28;97457.00;;;42.40
15935;BMP180;8066;48.776;11.384;2022-08-01T12:24:55;97472.00;;;42.90
15935;BMP180;8066;48.776;11.384;2022-08-01T12:27:28;97480.00;;;43.10
15935;BMP180;8066;48.776;11.384;2022-08-01T12:29:58;97468.00;;;43.10
15935;BMP180;8066;48.776;11.384;2022-08-01T12:32:28;97476.00;;;43.00
15935;BMP180;8066;48.776;11.384;2022-08-01T12:35:01;97477.00;;;42.80
15935;BMP180;8066;48.776;11.384;2022-08-01T12:37:28;97477.00;;;42.80
15935;BMP180;8066;48.776;11.384;2022-08-01T12:39:56;97474.00;;;42.90
15935;BMP180;8066;48.776;11.384;2022-08-01T12:42:24;97479.00;;;42.90
15935;BMP180;8066;48.776;11.384;2022-08-01T12:44:52;97478.00;;;42.90
15935;BMP180;8066;48.776;11.384;2022-08-01T12:47:21;97462.00;;;43.00
15935;BMP180;8066;48.776;11.384;2022-08-01T12:49:50;97470.00;;;43.20
15935;BMP180;8066;48.776;11.384;2022-08-01T12:52:17;97469.00;;;43.50
15935;BMP180;8066;48.776;11.384;2022-08-01T12:55:07;97473.00;;;43.50
15935;BMP180;8066;48.776;11.384;2022-08-01T12:57:36;97473.00;;;43.50
15935;BMP180;8066;48.776;11.384;2022-08-01T13:00:20;97468.00;;;43.30
15935;BMP180;8066;48.776;11.384;2022-08-01T13:03:01;97456.00;;;43.10
15935;BMP180;8066;48.776;11.384;2022-08-01T13:05:42;97454.00;;;43.00
15935;BMP180;8066;48.776;11.384;2022-08-01T13:08:10;97469.00;;;43.00
15935;BMP180;8066;48.776;11.384;2022-08-01T13:10:38;97463.00;;;42.90
15935;BMP180;8066;48.776;11.384;2022-08-01T13:13:05;97456.00;;;42.80
15935;BMP180;8066;48.776;11.384;2022-08-01T13:15:35;97465.00;;;42.50
15935;BMP180;8066;48.776;11.384;2022-08-01T13:18:25;97461.00;;;42.20
15935;BMP180;8066;48.776;11.384;2022-08-01T13:21:08;97461.00;;;41.90
15935;BMP180;8066;48.776;11.384;2022-08-01T13:23:36;97449.00;;;41.80
15935;BMP180;8066;48.776;11.384;2022-08-01T13:26:03;97448.00;;;41.70
15935;BMP180;8066;48.776;11.384;2022-08-01T13:28:31;97451.00;;;41.70
15935;BMP180;8066;48.776;11.384;2022-08-01T13:31:01;97437.00;;;41.50
15935;BMP180;8066;48.776;11.384;2022-08-01T13:33:44;97430.00;;;41.40
15935;BMP180;8066;48.776;11.384;2022-08-01T13:36:12;97435.00;;;41.40
15935;BMP180;8066;48.776;11.384;2022-08-01T13:38:40;97435.00;;;41.30
15935;BMP180;8066;48.776;11.384;2022-08-01T13:41:25;97436.00;;;41.10
15935;BMP180;8066;48.776;11.384;2022-08-01T13:43:52;97438.00;;;41.00
15935;BMP180;8066;48.776;11.384;2022-08-01T13:46:20;97433.00;;;40.90
15935;BMP180;8066;48.776;11.384;2022-08-01T13:48:48;97428.00;;;40.80
15935;BMP180;8066;48.776;11.384;2022-08-01T13:51:15;97424.00;;;40.60
15935;BMP180;8066;48.776;11.384;2022-08-01T13:53:42;97431.00;;;40.60
15935;BMP180;8066;48.776;11.384;2022-08-01T13:56:09;97432.00;;;40.40
15935;BMP180;8066;48.776;11.384;2022-08-01T13:58:36;97426.00;;;40.30
15935;BMP180;8066;48.776;11.384;2022-08-01T14:01:03;97433.00;;;40.20
15935;BMP180;8066;48.776;11.384;2022-08-01T14:03:38;97426.00;;;40.10
15935;BMP180;8066;48.776;11.384;2022-08-01T14:06:05;97428.00;;;40.00
15935;BMP180;8066;48.776;11.384;2022-08-01T14:08:32;97431.00;;;39.90
15935;BMP180;8066;48.776;11.384;2022-08-01T14:10:59;97440.00;;;39.80
15935;BMP180;8066;48.776;11.384;2022-08-01T14:13:26;97435.00;;;39.70
15935;BMP180;8066;48.776;11.384;2022-08-01T14:15:54;97436.00;;;39.60
15935;BMP180;8066;48.776;11.384;2022-08-01T14:18:21;97442.00;;;39.60
15935;BMP180;8066;48.776;11.384;2022-08-01T14:20:49;97439.00;;;39.50
15935;BMP180;8066;48.776;11.384;2022-08-01T14:23:16;97446.00;;;39.50
15935;BMP180;8066;48.776;11.384;2022-08-01T14:25:43;97441.00;;;39.40
15935;BMP180;8066;48.776;11.384;2022-08-01T14:28:10;97446.00;;;39.40